createdAt,value
2018-03-17T00:00:29.065Z,18.40
2018-03-17T00:02:58.586Z,18.53
2018-03-17T00:05:27.831Z,19.30
2018-03-17T00:07:57.086Z,20.07
2018-03-17T00:10:26.452Z,18.47
2018-03-17T00:12:55.719Z,15.30
2018-03-17T00:15:25.152Z,14.10
2018-03-17T00:17:54.517Z,16.17
2018-03-17T00:20:25.130Z,18.33
2018-03-17T00:22:54.383Z,20.70
2018-03-17T00:25:23.643Z,19.10
2018-03-17T00:27:52.885Z,20.07
2018-03-17T00:30:22.156Z,13.33
2018-03-17T00:32:51.434Z,22.20
2018-03-17T00:35:20.775Z,18.00
2018-03-17T00:37:50.055Z,18.07
2018-03-17T00:40:19.449Z,22.23
2018-03-17T00:42:48.737Z,20.37
2018-03-17T00:45:18.035Z,19.03
2018-03-17T00:47:48.065Z,20.33
2018-03-17T00:50:17.458Z,20.17
2018-03-17T00:52:46.761Z,17.77
2018-03-17T00:55:16.022Z,16.30
2018-03-17T00:57:45.262Z,13.93
2018-03-17T01:00:14.561Z,18.03
2018-03-17T01:02:43.852Z,19.10
2018-03-17T01:05:13.121Z,21.33
2018-03-17T01:07:42.383Z,20.50
2018-03-17T01:10:11.666Z,25.03
2018-03-17T01:12:41.090Z,20.27
2018-03-17T01:15:10.357Z,19.90
2018-03-17T01:17:39.624Z,19.80
2018-03-17T01:20:09.085Z,21.70
2018-03-17T01:22:38.340Z,21.67
2018-03-17T01:25:07.597Z,27.97
2018-03-17T01:27:36.849Z,18.53
2018-03-17T01:30:06.089Z,19.97
2018-03-17T01:32:35.364Z,20.93
2018-03-17T01:35:05.410Z,21.00
2018-03-17T01:37:34.658Z,19.03
2018-03-17T01:40:05.489Z,21.47
2018-03-17T01:42:34.975Z,22.93
2018-03-17T01:45:04.436Z,16.10
2018-03-17T01:47:33.723Z,22.43
2018-03-17T01:50:02.975Z,23.70
2018-03-17T01:52:32.278Z,25.87
2018-03-17T01:55:01.513Z,22.83
2018-03-17T01:57:30.774Z,23.57
2018-03-17T02:00:00.050Z,24.60
2018-03-17T02:02:30.080Z,18.23
2018-03-17T02:04:59.336Z,28.90
2018-03-17T02:07:28.628Z,21.23
2018-03-17T02:09:57.893Z,27.93
2018-03-17T02:12:27.178Z,26.97
2018-03-17T02:14:57.193Z,21.80
2018-03-17T02:17:26.475Z,23.83
2018-03-17T02:19:56.485Z,20.53
2018-03-17T02:22:25.759Z,21.60
2018-03-17T02:24:55.014Z,20.90
2018-03-17T02:27:24.288Z,23.20
2018-03-17T02:29:53.571Z,23.57
2018-03-17T02:32:22.873Z,19.20
2018-03-17T02:34:52.808Z,15.23
2018-03-17T02:37:22.241Z,22.93
2018-03-17T02:39:51.522Z,17.40
2018-03-17T02:42:20.777Z,23.90
2018-03-17T02:44:50.704Z,19.50
2018-03-17T02:47:19.981Z,25.83
2018-03-17T02:49:49.249Z,24.77
2018-03-17T02:52:19.284Z,19.17
2018-03-17T02:54:48.577Z,20.97
2018-03-17T02:57:17.818Z,18.47
2018-03-17T02:59:47.111Z,23.67
2018-03-17T03:02:16.525Z,26.13
2018-03-17T03:04:45.728Z,20.20
2018-03-17T03:07:14.999Z,18.20
2018-03-17T03:09:44.320Z,19.30
2018-03-17T03:12:13.610Z,22.37
2018-03-17T03:14:42.883Z,25.83
2018-03-17T03:17:12.215Z,24.27
2018-03-17T03:19:42.236Z,17.90
2018-03-17T03:22:11.634Z,24.10
2018-03-17T03:24:40.901Z,22.47
2018-03-17T03:27:11.775Z,23.63
2018-03-17T03:29:41.068Z,22.87
2018-03-17T03:32:10.366Z,19.43
2018-03-17T03:34:39.609Z,21.17
2018-03-17T03:37:09.049Z,19.27
2018-03-17T03:39:38.385Z,20.50
2018-03-17T03:42:07.884Z,23.17
2018-03-17T03:44:37.181Z,16.70
2018-03-17T03:47:06.614Z,27.63
2018-03-17T03:49:35.986Z,18.43
2018-03-17T03:52:05.262Z,18.07
2018-03-17T03:54:34.538Z,17.47
2018-03-17T03:57:03.808Z,18.90
2018-03-17T03:59:33.114Z,20.23
2018-03-17T04:02:02.368Z,25.67
2018-03-17T04:04:31.712Z,16.70
2018-03-17T04:07:01.003Z,19.57
2018-03-17T04:09:30.304Z,23.37
2018-03-17T04:11:59.561Z,17.03
2018-03-17T04:14:30.326Z,19.10
2018-03-17T04:16:59.601Z,17.10
2018-03-17T04:19:28.910Z,19.70
2018-03-17T04:21:58.252Z,20.83
2018-03-17T04:24:27.552Z,19.37
2018-03-17T04:26:56.830Z,19.47
2018-03-17T04:29:30.006Z,24.63
2018-03-17T04:32:00.096Z,21.27
2018-03-17T04:34:29.376Z,19.20
2018-03-17T04:36:58.644Z,20.50
2018-03-17T04:39:28.686Z,20.30
2018-03-17T04:41:57.959Z,18.77
2018-03-17T04:44:27.238Z,18.87
2018-03-17T04:46:56.485Z,14.20
2018-03-17T04:49:25.759Z,22.87
2018-03-17T04:51:55.818Z,18.53
2018-03-17T04:54:25.094Z,16.07
2018-03-17T04:56:54.355Z,18.07
2018-03-17T04:59:23.586Z,22.83
2018-03-17T05:01:52.863Z,21.33
2018-03-17T05:04:22.103Z,18.90
2018-03-17T05:06:51.842Z,15.13
2018-03-17T05:09:21.106Z,18.80
2018-03-17T05:11:50.421Z,17.50
2018-03-17T05:14:19.659Z,18.00
2018-03-17T05:16:48.970Z,23.57
2018-03-17T05:19:18.221Z,18.70
2018-03-17T05:21:47.495Z,22.93
2018-03-17T05:24:17.509Z,16.37
2018-03-17T05:26:46.778Z,25.67
2018-03-17T05:29:16.057Z,22.10
2018-03-17T05:31:45.322Z,20.43
2018-03-17T05:34:15.345Z,17.30
2018-03-17T05:36:44.610Z,20.43
2018-03-17T05:39:13.849Z,17.40
2018-03-17T05:41:43.128Z,15.90
2018-03-17T05:44:13.148Z,15.87
2018-03-17T05:46:42.423Z,18.80
2018-03-17T05:49:11.658Z,21.33
2018-03-17T05:51:41.038Z,21.23
2018-03-17T05:54:10.622Z,21.30
2018-03-17T05:56:39.955Z,16.13
2018-03-17T05:59:09.261Z,16.47
2018-03-17T06:01:38.554Z,21.00
2018-03-17T06:04:07.838Z,16.33
2018-03-17T06:06:37.123Z,16.57
2018-03-17T06:09:06.418Z,21.90
2018-03-17T06:11:35.678Z,19.10
2018-03-17T06:14:05.004Z,19.40
2018-03-17T06:16:34.207Z,26.67
2018-03-17T06:19:03.592Z,14.73
2018-03-17T06:21:32.832Z,17.63
2018-03-17T06:24:02.074Z,14.37
2018-03-17T06:26:32.107Z,19.13
2018-03-17T06:29:01.367Z,15.73
2018-03-17T06:31:30.763Z,14.73
2018-03-17T06:34:00.055Z,18.50
2018-03-17T06:36:29.379Z,12.57
2018-03-17T06:38:58.603Z,23.23
2018-03-17T06:41:28.551Z,14.80
2018-03-17T06:43:57.827Z,16.70
2018-03-17T06:46:27.819Z,13.97
2018-03-17T06:48:57.095Z,10.67
2018-03-17T06:51:26.343Z,13.90
2018-03-17T06:53:55.623Z,16.50
2018-03-17T06:56:26.378Z,15.20
2018-03-17T06:58:55.661Z,16.60
2018-03-17T07:01:25.693Z,12.93
2018-03-17T07:03:54.993Z,13.20
2018-03-17T07:06:24.269Z,12.37
2018-03-17T07:08:53.549Z,18.10
2018-03-17T07:11:22.812Z,16.50
2018-03-17T07:13:52.069Z,10.67
2018-03-17T07:16:21.399Z,13.87
2018-03-17T07:18:50.636Z,9.70
2018-03-17T07:21:19.959Z,10.00
2018-03-17T07:23:49.232Z,9.30
2018-03-17T07:26:18.545Z,12.30
2018-03-17T07:28:47.804Z,10.70
2018-03-17T07:31:17.844Z,11.00
2018-03-17T07:33:47.369Z,10.00
2018-03-17T07:36:16.810Z,11.40
2018-03-17T07:38:46.298Z,10.30
2018-03-17T07:41:15.554Z,9.93
2018-03-17T07:43:45.563Z,12.27
2018-03-17T07:46:14.999Z,9.80
2018-03-17T07:48:45.010Z,16.80
2018-03-17T07:51:14.299Z,15.13
2018-03-17T07:53:43.506Z,12.57
2018-03-17T07:56:12.782Z,8.63
2018-03-17T07:58:42.797Z,14.20
2018-03-17T08:01:12.076Z,9.60
2018-03-17T08:03:41.318Z,33.00
2018-03-17T08:06:11.423Z,14.30
2018-03-17T08:08:41.458Z,47.63
2018-03-17T08:11:10.722Z,144.50
2018-03-17T08:13:40.052Z,83.07
2018-03-17T08:16:09.553Z,47.90
2018-03-17T08:18:38.815Z,15.80
2018-03-17T08:21:08.090Z,14.00
2018-03-17T08:23:37.363Z,7.13
2018-03-17T08:26:07.360Z,15.47
2018-03-17T08:28:36.690Z,12.17
2018-03-17T08:31:05.909Z,12.43
2018-03-17T08:33:35.365Z,10.63
2018-03-17T08:36:04.591Z,11.43
2018-03-17T08:38:33.867Z,8.50
2018-03-17T08:41:03.135Z,11.97
2018-03-17T08:43:32.431Z,12.40
2018-03-17T08:46:01.730Z,13.73
2018-03-17T08:48:31.054Z,10.40
2018-03-17T08:51:01.034Z,9.17
2018-03-17T08:53:30.431Z,10.63
2018-03-17T08:55:59.920Z,11.73
2018-03-17T08:58:30.111Z,11.00
2018-03-17T09:00:59.379Z,9.83
2018-03-17T09:03:28.863Z,11.50
2018-03-17T09:05:58.905Z,11.17
2018-03-17T09:08:28.271Z,11.97
2018-03-17T09:10:57.781Z,7.77
2018-03-17T09:13:27.816Z,10.10
2018-03-17T09:15:57.070Z,10.37
2018-03-17T09:18:26.340Z,14.10
2018-03-17T09:20:55.616Z,8.73
2018-03-17T09:23:25.618Z,12.80
2018-03-17T09:25:54.885Z,10.23
2018-03-17T09:28:24.152Z,11.57
2018-03-17T09:30:53.559Z,9.90
2018-03-17T09:33:23.644Z,18.27
2018-03-17T09:35:52.913Z,13.17
2018-03-17T09:38:22.164Z,11.47
2018-03-17T09:40:51.454Z,14.47
2018-03-17T09:43:20.963Z,15.27
2018-03-17T09:45:50.259Z,10.10
2018-03-17T09:48:19.684Z,9.60
2018-03-17T09:50:48.963Z,10.00
2018-03-17T09:53:19.005Z,8.37
2018-03-17T09:55:48.321Z,7.00
2018-03-17T09:58:17.900Z,7.97
2018-03-17T10:00:47.138Z,13.43
2018-03-17T10:03:16.583Z,12.67
2018-03-17T10:05:45.837Z,8.10
2018-03-17T10:08:15.175Z,15.93
2018-03-17T10:10:44.432Z,15.73
2018-03-17T10:13:13.700Z,10.37
2018-03-17T10:15:42.969Z,8.90
2018-03-17T10:18:12.216Z,12.40
2018-03-17T10:20:41.488Z,9.77
2018-03-17T10:23:10.714Z,5.93
2018-03-17T10:25:39.964Z,9.53
2018-03-17T10:28:09.221Z,16.10
2018-03-17T10:30:38.520Z,9.97
2018-03-17T10:33:07.973Z,10.03
2018-03-17T10:35:37.223Z,8.83
2018-03-17T10:38:06.508Z,10.93
2018-03-17T10:40:35.734Z,11.40
2018-03-17T10:43:05.012Z,12.67
2018-03-17T10:45:34.340Z,12.40
2018-03-17T10:48:03.595Z,13.10
2018-03-17T10:50:33.660Z,9.70
2018-03-17T10:53:02.941Z,7.90
2018-03-17T10:55:32.419Z,8.07
2018-03-17T10:58:01.697Z,9.77
2018-03-17T11:00:31.064Z,11.57
2018-03-17T11:03:00.323Z,9.33
2018-03-17T11:05:30.058Z,6.50
2018-03-17T11:07:59.551Z,10.43
2018-03-17T11:10:28.818Z,12.17
2018-03-17T11:12:58.063Z,10.30
2018-03-17T11:15:27.529Z,13.20
2018-03-17T11:17:56.799Z,9.70
2018-03-17T11:20:26.075Z,6.70
2018-03-17T11:22:55.387Z,6.23
2018-03-17T11:25:24.778Z,11.03
2018-03-17T11:27:54.788Z,12.03
2018-03-17T11:30:24.050Z,14.87
2018-03-17T11:32:53.289Z,9.27
2018-03-17T11:35:23.313Z,6.93
2018-03-17T11:37:52.592Z,7.20
2018-03-17T11:40:21.818Z,11.40
2018-03-17T11:42:51.085Z,11.93
2018-03-17T11:45:21.121Z,8.87
2018-03-17T11:47:50.379Z,7.47
2018-03-17T11:50:19.632Z,7.53
2018-03-17T11:52:49.674Z,11.10
2018-03-17T11:55:19.174Z,8.63
2018-03-17T11:57:48.423Z,7.20
2018-03-17T12:00:17.753Z,12.97
2018-03-17T12:02:47.273Z,17.33
2018-03-17T12:05:16.654Z,9.50
2018-03-17T12:07:45.903Z,8.77
2018-03-17T12:10:15.155Z,7.83
2018-03-17T12:12:44.407Z,13.43
2018-03-17T12:15:13.699Z,12.33
2018-03-17T12:17:43.762Z,11.37
2018-03-17T12:20:13.011Z,8.27
2018-03-17T12:22:42.328Z,8.07
2018-03-17T12:25:11.585Z,12.33
2018-03-17T12:27:40.845Z,6.07
2018-03-17T12:30:10.084Z,11.47
2018-03-17T12:32:40.139Z,13.87
2018-03-17T12:35:09.499Z,9.20
2018-03-17T12:37:38.777Z,6.77
2018-03-17T12:40:08.013Z,8.07
2018-03-17T12:42:37.270Z,13.33
2018-03-17T12:45:06.511Z,4.37
2018-03-17T12:47:36.570Z,13.63
2018-03-17T12:50:06.451Z,14.17
2018-03-17T12:52:36.489Z,18.83
2018-03-17T12:55:05.769Z,8.93
2018-03-17T12:57:35.788Z,8.80
2018-03-17T13:00:05.182Z,8.67
2018-03-17T13:02:35.213Z,10.20
2018-03-17T13:05:04.630Z,5.07
2018-03-17T13:07:33.973Z,11.20
2018-03-17T13:10:03.250Z,6.63
2018-03-17T13:12:32.474Z,6.20
2018-03-17T13:15:01.748Z,10.53
2018-03-17T13:17:31.050Z,8.80
2018-03-17T13:20:00.331Z,10.60
2018-03-17T13:22:47.670Z,7.33
2018-03-17T13:25:17.631Z,12.20
2018-03-17T13:30:54.959Z,5.90
2018-03-17T13:33:25.178Z,9.37
2018-03-17T13:36:11.974Z,15.87
2018-03-17T13:38:41.224Z,4.77
2018-03-17T13:41:10.496Z,6.70
2018-03-17T13:43:39.820Z,8.40
2018-03-17T13:46:09.442Z,7.50
2018-03-17T13:48:38.690Z,7.60
2018-03-17T13:51:07.948Z,11.33
2018-03-17T13:53:37.230Z,3.03
2018-03-17T13:56:06.615Z,12.07
2018-03-17T13:58:36.701Z,14.20
2018-03-17T14:01:05.971Z,7.70
2018-03-17T14:03:35.265Z,9.30
2018-03-17T14:06:04.542Z,17.87
2018-03-17T14:08:33.782Z,9.70
2018-03-17T14:11:03.154Z,20.43
2018-03-17T14:13:32.561Z,6.93
2018-03-17T14:16:01.828Z,18.40
2018-03-17T14:18:31.252Z,8.27
2018-03-17T14:21:00.508Z,10.00
2018-03-17T14:23:29.785Z,11.53
2018-03-17T14:25:59.071Z,10.90
2018-03-17T14:28:29.100Z,8.30
2018-03-17T14:30:58.368Z,10.00
2018-03-17T14:33:27.629Z,11.53
2018-03-17T14:35:56.872Z,5.57
2018-03-17T14:38:26.103Z,10.53
2018-03-17T14:40:55.377Z,8.70
2018-03-17T14:43:24.622Z,9.57
2018-03-17T14:45:54.551Z,12.67
2018-03-17T14:48:23.812Z,9.53
2018-03-17T14:50:53.090Z,8.63
2018-03-17T14:53:23.085Z,10.87
2018-03-17T14:55:52.350Z,11.90
2018-03-17T14:58:21.646Z,9.43
2018-03-17T15:00:51.702Z,10.80
2018-03-17T15:03:20.978Z,7.70
2018-03-17T15:05:50.324Z,8.27
2018-03-17T15:08:20.343Z,12.10
2018-03-17T15:10:49.586Z,7.40
2018-03-17T15:13:18.881Z,13.67
2018-03-17T15:15:48.105Z,13.60
2018-03-17T15:18:18.248Z,8.27
2018-03-17T15:20:47.507Z,13.57
2018-03-17T15:23:16.778Z,11.00
2018-03-17T15:25:46.316Z,13.80
2018-03-17T15:28:16.129Z,9.53
2018-03-17T15:30:45.474Z,9.73
2018-03-17T15:33:14.722Z,22.60
2018-03-17T15:35:43.993Z,13.70
2018-03-17T15:38:13.237Z,10.87
2018-03-17T15:40:42.517Z,7.30
2018-03-17T15:43:11.805Z,8.23
2018-03-17T15:45:41.087Z,10.33
2018-03-17T15:48:10.337Z,8.87
2018-03-17T15:50:39.592Z,7.43
2018-03-17T15:53:08.869Z,7.80
2018-03-17T15:55:38.216Z,7.53
2018-03-17T15:58:09.015Z,12.07
2018-03-17T16:00:38.260Z,8.17
2018-03-17T16:03:07.506Z,9.07
2018-03-17T16:05:36.795Z,12.27
2018-03-17T16:08:06.049Z,6.33
2018-03-17T16:10:35.323Z,8.70
2018-03-17T16:13:04.679Z,4.07
2018-03-17T16:15:33.932Z,13.53
2018-03-17T16:18:03.432Z,10.53
2018-03-17T16:20:32.673Z,6.00
2018-03-17T16:23:01.952Z,7.53
2018-03-17T16:25:31.226Z,7.97
2018-03-17T16:28:00.668Z,11.27
2018-03-17T16:30:29.937Z,13.60
2018-03-17T16:32:59.270Z,10.47
2018-03-17T16:35:29.338Z,11.70
2018-03-17T16:37:58.605Z,20.17
2018-03-17T16:40:28.075Z,20.67
2018-03-17T16:42:57.335Z,24.20
2018-03-17T16:45:26.629Z,13.47
2018-03-17T16:47:55.887Z,16.17
2018-03-17T16:50:25.183Z,12.03
2018-03-17T16:52:54.460Z,8.57
2018-03-17T16:55:23.740Z,10.57
2018-03-17T16:57:52.989Z,8.70
2018-03-17T17:00:22.283Z,10.80
2018-03-17T17:02:51.654Z,7.80
2018-03-17T17:05:20.916Z,7.70
2018-03-17T17:07:50.215Z,11.97
2018-03-17T17:10:19.479Z,11.43
2018-03-17T17:12:48.758Z,13.03
2018-03-17T17:15:18.019Z,8.07
2018-03-17T17:17:47.282Z,9.03
2018-03-17T17:20:16.559Z,9.63
2018-03-17T17:22:45.826Z,6.30
2018-03-17T17:25:15.239Z,8.20
2018-03-17T17:27:44.595Z,7.17
2018-03-17T17:30:13.886Z,12.67
2018-03-17T17:32:43.320Z,14.70
2018-03-17T17:35:12.638Z,9.30
2018-03-17T17:37:41.910Z,10.13
2018-03-17T17:40:11.216Z,7.40
2018-03-17T17:42:40.467Z,7.30
2018-03-17T17:45:09.746Z,9.90
2018-03-17T17:47:39.018Z,9.27
2018-03-17T17:50:08.294Z,9.97
2018-03-17T17:52:37.538Z,12.83
2018-03-17T17:55:06.876Z,10.47
2018-03-17T17:57:36.198Z,8.10
2018-03-17T18:00:05.550Z,9.50
2018-03-17T18:02:34.866Z,10.03
2018-03-17T18:05:04.911Z,7.60
2018-03-17T18:07:34.178Z,10.63
2018-03-17T18:10:03.435Z,9.83
2018-03-17T18:12:32.692Z,5.30
2018-03-17T18:15:02.719Z,10.90
2018-03-17T18:17:32.028Z,8.80
2018-03-17T18:20:01.282Z,10.93
2018-03-17T18:22:30.541Z,12.03
2018-03-17T18:24:59.792Z,9.57
2018-03-17T18:27:29.057Z,6.47
2018-03-17T18:29:58.338Z,7.30
2018-03-17T18:32:27.590Z,9.47
2018-03-17T18:34:56.924Z,10.60
2018-03-17T18:37:26.174Z,8.30
2018-03-17T18:39:55.440Z,13.33
2018-03-17T18:42:24.687Z,11.80
2018-03-17T18:44:53.950Z,12.00
2018-03-17T18:47:23.244Z,10.57
2018-03-17T18:49:52.502Z,10.67
2018-03-17T18:52:21.760Z,11.80
2018-03-17T18:54:51.004Z,11.30
2018-03-17T18:57:20.507Z,7.23
2018-03-17T18:59:49.770Z,13.97
2018-03-17T19:02:19.044Z,16.03
2018-03-17T19:04:48.309Z,8.07
2018-03-17T19:07:18.439Z,9.13
2018-03-17T19:09:47.676Z,8.27
2018-03-17T19:12:16.977Z,15.00
2018-03-17T19:14:46.284Z,19.10
2018-03-17T19:17:15.567Z,9.20
2018-03-17T19:19:45.587Z,9.00
2018-03-17T19:22:14.851Z,11.90
2018-03-17T19:24:44.098Z,8.90
2018-03-17T19:27:13.351Z,6.07
2018-03-17T19:29:42.630Z,12.03
2018-03-17T19:32:11.874Z,8.30
2018-03-17T19:34:41.226Z,8.23
2018-03-17T19:37:10.469Z,9.63
2018-03-17T19:39:39.706Z,8.93
2018-03-17T19:42:08.965Z,7.83
2018-03-17T19:44:38.295Z,5.77
2018-03-17T19:47:07.550Z,9.83
2018-03-17T19:49:36.857Z,9.60
2018-03-17T19:52:06.088Z,7.13
2018-03-17T19:54:35.350Z,7.20
2018-03-17T19:57:04.607Z,7.93
2018-03-17T19:59:33.893Z,10.53
2018-03-17T20:02:03.908Z,7.90
2018-03-17T20:04:33.175Z,5.60
2018-03-17T20:07:02.498Z,11.77
2018-03-17T20:09:31.919Z,8.33
2018-03-17T20:12:01.940Z,7.63
2018-03-17T20:14:31.207Z,10.80
2018-03-17T20:17:00.621Z,7.77
2018-03-17T20:19:30.678Z,7.30
2018-03-17T20:21:59.941Z,7.90
2018-03-17T20:24:29.265Z,5.50
2018-03-17T20:26:58.501Z,14.27
2018-03-17T20:29:27.760Z,8.27
2018-03-17T20:31:57.005Z,9.60
2018-03-17T20:34:26.259Z,11.10
2018-03-17T20:36:55.536Z,9.70
2018-03-17T20:39:24.805Z,11.30
2018-03-17T20:41:54.030Z,10.97
2018-03-17T20:44:23.335Z,10.73
2018-03-17T20:46:52.605Z,5.27
2018-03-17T20:49:22.063Z,11.60
2018-03-17T20:51:51.343Z,12.47
2018-03-17T20:54:21.272Z,6.30
2018-03-17T20:56:50.550Z,13.63
2018-03-17T20:59:19.795Z,9.27
2018-03-17T21:01:50.038Z,9.13
2018-03-17T21:04:19.375Z,5.60
2018-03-17T21:06:48.722Z,10.33
2018-03-17T21:09:18.871Z,12.23
2018-03-17T21:11:48.210Z,10.90
2018-03-17T21:14:17.530Z,9.60
2018-03-17T21:16:46.820Z,8.10
2018-03-17T21:19:16.170Z,11.17
2018-03-17T21:21:45.414Z,11.30
2018-03-17T21:24:14.687Z,12.63
2018-03-17T21:26:43.974Z,15.57
2018-03-17T21:29:13.337Z,19.13
2018-03-17T21:31:42.624Z,11.33
2018-03-17T21:34:11.895Z,10.23
2018-03-17T21:36:41.176Z,9.90
2018-03-17T21:39:11.024Z,12.10
2018-03-17T21:41:40.317Z,5.50
2018-03-17T21:44:09.573Z,12.70
2018-03-17T21:46:38.828Z,4.17
2018-03-17T21:49:08.812Z,8.50
2018-03-17T21:51:38.082Z,12.90
2018-03-17T21:54:07.342Z,8.93
2018-03-17T21:56:36.599Z,13.77
2018-03-17T21:59:05.908Z,10.87
2018-03-17T22:01:35.870Z,7.43
2018-03-17T22:04:05.239Z,9.87
2018-03-17T22:06:34.560Z,8.47
2018-03-17T22:09:04.130Z,8.90
2018-03-17T22:11:33.461Z,15.37
2018-03-17T22:14:02.747Z,6.90
2018-03-17T22:16:32.060Z,8.97
2018-03-17T22:19:02.338Z,11.03
2018-03-17T22:21:32.419Z,12.33
2018-03-17T22:24:01.684Z,16.60
2018-03-17T22:26:30.984Z,12.13
2018-03-17T22:29:00.251Z,13.50
2018-03-17T22:31:29.507Z,6.63
2018-03-17T22:33:58.807Z,7.70
2018-03-17T22:36:28.053Z,9.40
2018-03-17T22:38:57.321Z,9.10
2018-03-17T22:41:26.587Z,10.57
2018-03-17T22:43:55.871Z,9.03
2018-03-17T22:46:25.125Z,12.43
2018-03-17T22:48:54.412Z,11.20
2018-03-17T22:51:23.704Z,8.63
2018-03-17T22:53:52.988Z,8.50
2018-03-17T22:56:22.504Z,14.40
2018-03-17T22:58:51.771Z,12.50
2018-03-17T23:01:21.163Z,13.63
2018-03-17T23:03:50.478Z,10.23
2018-03-17T23:06:19.716Z,14.50
2018-03-17T23:08:48.962Z,10.37
2018-03-17T23:11:18.959Z,17.43
2018-03-17T23:13:48.251Z,13.90
2018-03-17T23:16:17.719Z,6.63
2018-03-17T23:18:47.761Z,11.27
2018-03-17T23:21:17.058Z,8.23
2018-03-17T23:23:46.306Z,12.57
2018-03-17T23:26:15.604Z,15.53
2018-03-17T23:28:44.846Z,8.63
2018-03-17T23:31:14.902Z,11.53
2018-03-17T23:33:44.146Z,12.63
2018-03-17T23:36:13.522Z,18.90
2018-03-17T23:38:42.794Z,9.80
2018-03-17T23:41:12.056Z,7.47
2018-03-17T23:43:41.468Z,10.83
2018-03-17T23:46:11.481Z,10.80
2018-03-17T23:48:40.768Z,10.50
2018-03-17T23:51:10.063Z,12.87
2018-03-17T23:53:39.320Z,20.17
2018-03-17T23:56:08.635Z,8.70
2018-03-17T23:58:37.904Z,10.90
